Time;durP1;ratioP1;P1;durP2;ratioP2;P2;SDS_P1;SDS_P2;PMS_P1;PMS_P2;Temp;Humidity;BMP_temperature;BMP_pressure;BME280_temperature;BME280_humidity;BME280_pressure;Samples;Min_cycle;Max_cycle;Signal;HPM_P1;HPM_P2
2021/10/26 00:02:20;;;;;;;0.80;0.57;;;6.10;99.90;;;;;;5035197;28;20473;-68
2021/10/26 00:04:48;;;;;;;0.90;0.70;;;6.10;99.90;;;;;;5035207;28;20192;-67
2021/10/26 00:07:17;;;;;;;1.48;1.10;;;6.20;99.90;;;;;;5034663;28;20177;-67
2021/10/26 00:09:46;;;;;;;2.28;1.00;;;6.30;99.90;;;;;;5034535;28;20583;-67
2021/10/26 00:12:15;;;;;;;1.10;0.88;;;6.30;99.90;;;;;;5016340;28;20217;-70
2021/10/26 00:14:43;;;;;;;2.13;1.98;;;6.30;99.90;;;;;;5034475;28;20189;-67
2021/10/26 00:17:11;;;;;;;0.90;0.70;;;6.40;99.90;;;;;;5033933;28;20197;-68
2021/10/26 00:19:39;;;;;;;0.90;0.63;;;6.30;99.90;;;;;;5034043;28;20544;-67
2021/10/26 00:22:07;;;;;;;1.58;1.42;;;6.20;99.90;;;;;;5016179;28;20657;-68
2021/10/26 00:24:35;;;;;;;5.22;1.13;;;6.20;99.90;;;;;;5033926;28;20177;-66
2021/10/26 00:27:05;;;;;;;1.15;1.05;;;6.20;99.90;;;;;;5033675;28;20180;-66
2021/10/26 00:29:33;;;;;;;1.27;1.15;;;6.30;99.90;;;;;;5033713;28;20213;-67
2021/10/26 00:32:01;;;;;;;1.00;0.80;;;6.40;99.90;;;;;;5033782;28;20694;-68
2021/10/26 00:34:32;;;;;;;1.80;1.20;;;6.60;99.90;;;;;;5033791;28;20324;-66
2021/10/26 00:37:00;;;;;;;1.42;1.27;;;6.70;99.90;;;;;;5033796;28;20208;-67
2021/10/26 00:39:29;;;;;;;2.30;1.45;;;7.00;99.90;;;;;;5016002;28;20189;-67
2021/10/26 00:41:58;;;;;;;1.27;1.13;;;7.20;99.90;;;;;;5015687;28;20311;-67
2021/10/26 00:44:29;;;;;;;1.35;0.80;;;7.30;99.90;;;;;;5033754;28;20187;-69
2021/10/26 00:47:02;;;;;;;2.83;1.10;;;7.50;99.90;;;;;;5015788;28;20215;-69
2021/10/26 00:49:30;;;;;;;1.10;0.70;;;7.60;99.90;;;;;;5033566;28;20185;-66
2021/10/26 00:51:59;;;;;;;1.48;1.38;;;7.80;99.90;;;;;;5015933;28;20223;-67
2021/10/26 00:54:28;;;;;;;1.70;1.55;;;7.80;99.90;;;;;;5015709;28;20588;-67
2021/10/26 00:57:03;;;;;;;1.50;1.40;;;7.90;99.90;;;;;;5015272;28;20193;-68
2021/10/26 00:59:33;;;;;;;1.25;0.75;;;7.90;99.90;;;;;;5015251;28;20565;-68
2021/10/26 01:02:02;;;;;;;4.65;1.50;;;7.90;99.90;;;;;;5015386;28;20740;-68
2021/10/26 01:04:30;;;;;;;1.63;1.00;;;8.00;99.90;;;;;;5033382;28;20193;-68
2021/10/26 01:06:58;;;;;;;4.75;1.60;;;8.00;99.90;;;;;;5015237;28;20567;-67
2021/10/26 01:09:30;;;;;;;1.92;1.20;;;8.00;99.90;;;;;;5015387;28;20266;-68
2021/10/26 01:12:00;;;;;;;1.30;0.98;;;8.00;99.90;;;;;;5015199;28;20310;-67
2021/10/26 01:14:30;;;;;;;1.20;0.70;;;8.00;99.90;;;;;;5015166;28;20224;-67
2021/10/26 01:17:08;;;;;;;2.65;1.50;;;8.00;99.90;;;;;;5014903;28;20665;-67
2021/10/26 01:19:45;;;;;;;1.27;1.17;;;7.90;99.90;;;;;;5015242;28;20197;-67
2021/10/26 01:22:15;;;;;;;1.38;0.68;;;8.10;99.90;;;;;;5015128;28;20697;-67
2021/10/26 01:24:43;;;;;;;4.95;1.33;;;8.10;99.90;;;;;;5015199;28;20208;-67
2021/10/26 01:27:12;;;;;;;1.00;0.90;;;8.10;99.90;;;;;;5014900;28;20296;-67
2021/10/26 01:29:41;;;;;;;0.88;0.65;;;8.10;99.90;;;;;;5015130;28;20189;-67
2021/10/26 01:32:13;;;;;;;1.25;1.13;;;8.20;99.90;;;;;;5015616;28;20221;-67
2021/10/26 01:34:46;;;;;;;1.40;1.27;;;8.10;99.90;;;;;;5015045;28;20464;-67
2021/10/26 01:37:14;;;;;;;1.45;1.00;;;8.00;99.90;;;;;;5015115;28;20198;-68
2021/10/26 01:39:44;;;;;;;2.90;1.27;;;8.10;99.90;;;;;;5015213;28;20220;-66
2021/10/26 01:42:13;;;;;;;1.33;0.82;;;8.00;99.90;;;;;;5014782;28;20595;-66
2021/10/26 01:44:41;;;;;;;1.13;1.00;;;8.00;99.90;;;;;;5014714;28;20193;-66
2021/10/26 01:47:21;;;;;;;0.90;0.50;;;8.00;99.90;;;;;;5014347;28;20320;-69
2021/10/26 01:49:51;;;;;;;1.38;0.95;;;8.00;99.90;;;;;;5015034;28;20196;-67
2021/10/26 01:52:23;;;;;;;3.00;1.30;;;8.10;99.90;;;;;;5014630;28;20659;-67
2021/10/26 01:54:52;;;;;;;1.45;0.80;;;8.00;99.90;;;;;;5014644;28;20216;-67
2021/10/26 01:57:22;;;;;;;2.00;1.38;;;8.00;99.90;;;;;;5014491;28;20217;-69
2021/10/26 02:00:12;;;;;;;1.48;1.38;;;8.00;99.90;;;;;;5001731;28;20197;-66
2021/10/26 02:02:41;;;;;;;3.42;1.95;;;7.90;99.90;;;;;;5033140;28;20897;-68
2021/10/26 02:05:11;;;;;;;2.55;2.20;;;7.70;99.90;;;;;;5014617;28;20189;-67
2021/10/26 02:07:39;;;;;;;0.90;0.70;;;7.70;99.90;;;;;;5015134;28;20304;-66
2021/10/26 02:10:09;;;;;;;1.65;1.00;;;7.50;99.90;;;;;;5014615;28;20666;-68
2021/10/26 02:12:38;;;;;;;1.80;1.17;;;7.40;99.90;;;;;;5014343;28;20233;-67
2021/10/26 02:15:07;;;;;;;1.25;1.15;;;7.30;99.90;;;;;;5014318;28;20197;-68
2021/10/26 02:17:36;;;;;;;1.27;0.90;;;7.30;99.90;;;;;;5014638;28;20194;-67
2021/10/26 02:20:08;;;;;;;1.15;1.00;;;7.20;99.90;;;;;;5015016;28;20239;-68
2021/10/26 02:22:38;;;;;;;1.63;1.52;;;7.10;99.90;;;;;;5032712;28;20220;-68
2021/10/26 02:25:08;;;;;;;2.17;1.05;;;7.10;99.90;;;;;;5016654;28;20195;-67
2021/10/26 02:27:38;;;;;;;1.58;0.95;;;7.00;99.90;;;;;;5018083;28;20216;-68
2021/10/26 02:30:07;;;;;;;0.82;0.52;;;6.80;99.90;;;;;;5014504;28;20197;-66
2021/10/26 02:32:35;;;;;;;1.75;1.30;;;6.70;99.90;;;;;;5014290;28;20213;-67
2021/10/26 02:35:04;;;;;;;1.00;0.85;;;6.80;99.90;;;;;;5032696;28;20569;-66
2021/10/26 02:37:32;;;;;;;1.95;1.85;;;6.80;99.90;;;;;;5014434;28;20216;-67
2021/10/26 02:40:04;;;;;;;0.80;0.50;;;6.70;99.90;;;;;;5014963;28;20224;-67
2021/10/26 02:42:33;;;;;;;1.15;0.95;;;6.80;99.90;;;;;;5032075;28;20584;-68
2021/10/26 02:45:01;;;;;;;1.10;0.70;;;6.70;99.90;;;;;;5034493;28;20667;-67
2021/10/26 02:47:29;;;;;;;0.80;0.60;;;6.60;99.90;;;;;;5016301;28;20201;-66
2021/10/26 02:49:57;;;;;;;1.20;1.10;;;6.60;99.90;;;;;;5017325;28;20205;-67
2021/10/26 02:52:25;;;;;;;0.90;0.60;;;6.70;99.90;;;;;;5032817;28;20211;-67
2021/10/26 02:54:54;;;;;;;2.00;1.02;;;6.70;99.90;;;;;;5018371;28;20255;-68
2021/10/26 02:57:23;;;;;;;0.80;0.52;;;6.60;99.90;;;;;;5035512;28;20196;-68
2021/10/26 02:59:51;;;;;;;0.85;0.55;;;6.50;99.90;;;;;;5018056;28;20213;-67
2021/10/26 03:02:19;;;;;;;1.38;1.13;;;6.50;99.90;;;;;;5018002;28;20217;-68
2021/10/26 03:04:48;;;;;;;1.00;0.80;;;6.50;99.90;;;;;;5017898;28;20578;-67
2021/10/26 03:07:16;;;;;;;0.90;0.60;;;6.60;99.90;;;;;;5017584;28;20177;-68
2021/10/26 03:09:46;;;;;;;2.95;1.33;;;6.70;99.90;;;;;;5017804;28;20189;-68
2021/10/26 03:12:15;;;;;;;3.65;1.60;;;6.60;99.90;;;;;;5017728;28;20217;-67
2021/10/26 03:14:44;;;;;;;1.20;0.90;;;6.70;99.90;;;;;;5018152;28;20530;-67
2021/10/26 03:17:13;;;;;;;2.28;1.17;;;6.70;99.90;;;;;;5017638;28;20276;-68
2021/10/26 03:19:55;;;;;;;1.15;0.95;;;6.70;99.90;;;;;;5017725;28;20213;-68
2021/10/26 03:22:23;;;;;;;0.90;0.68;;;6.80;99.90;;;;;;5017384;28;20220;-68
2021/10/26 03:24:53;;;;;;;1.50;1.40;;;6.80;99.90;;;;;;5017211;28;20215;-68
2021/10/26 03:27:22;;;;;;;1.00;0.68;;;6.90;99.90;;;;;;5017282;28;20201;-68
2021/10/26 03:29:52;;;;;;;2.17;1.98;;;7.00;99.90;;;;;;5017605;28;20338;-67
2021/10/26 03:32:20;;;;;;;1.10;0.93;;;7.10;99.90;;;;;;5017534;28;20213;-70
2021/10/26 03:35:10;;;;;;;1.20;0.60;;;7.10;99.90;;;;;;5034165;28;20193;-69
2021/10/26 03:37:41;;;;;;;0.90;0.60;;;7.30;99.90;;;;;;5017173;28;20647;-67
2021/10/26 03:40:11;;;;;;;1.55;1.00;;;7.40;99.90;;;;;;5017064;28;20295;-67
2021/10/26 03:42:41;;;;;;;0.90;0.80;;;7.50;99.90;;;;;;5016771;28;20214;-68
2021/10/26 03:45:10;;;;;;;0.90;0.52;;;7.60;99.90;;;;;;5034601;28;20177;-68
2021/10/26 03:47:40;;;;;;;2.90;1.00;;;7.50;99.90;;;;;;5016792;28;20186;-68
2021/10/26 03:50:09;;;;;;;1.48;1.20;;;7.40;99.90;;;;;;5017135;28;20200;-67
2021/10/26 03:52:38;;;;;;;1.42;0.75;;;7.50;99.90;;;;;;5016791;28;20271;-67
2021/10/26 03:55:08;;;;;;;1.00;0.80;;;7.60;99.90;;;;;;5034457;28;20208;-66
2021/10/26 03:57:39;;;;;;;2.20;1.42;;;7.60;99.90;;;;;;5016838;28;20204;-67
2021/10/26 04:00:08;;;;;;;2.25;1.00;;;7.70;99.90;;;;;;5016483;28;20260;-67
2021/10/26 04:02:55;;;;;;;0.80;0.50;;;7.60;99.90;;;;;;5016623;28;20327;-68
2021/10/26 04:05:37;;;;;;;0.90;0.68;;;7.70;99.90;;;;;;5015707;28;20669;-69
2021/10/26 04:08:18;;;;;;;0.98;0.85;;;7.70;99.90;;;;;;5034495;28;20247;-67
2021/10/26 04:10:50;;;;;;;1.02;0.93;;;7.80;99.90;;;;;;5016425;28;20182;-68
2021/10/26 04:13:19;;;;;;;1.65;1.33;;;7.80;99.90;;;;;;5032698;28;20583;-68
2021/10/26 04:15:49;;;;;;;1.35;1.25;;;7.80;99.90;;;;;;5016139;28;20196;-67
2021/10/26 04:18:19;;;;;;;4.38;2.25;;;7.80;99.90;;;;;;5016253;28;20189;-67
2021/10/26 04:20:47;;;;;;;1.30;0.70;;;7.90;99.90;;;;;;5016443;28;20225;-67
2021/10/26 04:23:16;;;;;;;0.88;0.60;;;7.90;99.90;;;;;;5016185;28;20224;-66
2021/10/26 04:25:44;;;;;;;1.13;0.88;;;8.00;99.90;;;;;;5034102;28;20368;-68
2021/10/26 04:28:13;;;;;;;1.35;0.75;;;8.00;99.90;;;;;;5016164;28;20202;-67
2021/10/26 04:30:43;;;;;;;2.40;2.20;;;8.00;99.90;;;;;;5016046;28;20704;-68
2021/10/26 04:33:16;;;;;;;2.00;0.80;;;8.10;99.90;;;;;;5015761;28;20214;-68
2021/10/26 04:35:46;;;;;;;1.50;0.95;;;8.10;99.90;;;;;;5015632;28;20224;-68
2021/10/26 04:38:16;;;;;;;3.40;1.00;;;8.10;99.90;;;;;;5015910;28;20193;-67
2021/10/26 04:40:48;;;;;;;2.83;1.30;;;8.10;99.90;;;;;;5015633;28;20216;-67
2021/10/26 04:43:21;;;;;;;4.82;1.27;;;8.10;99.90;;;;;;5015558;28;20222;-68
2021/10/26 04:45:51;;;;;;;0.80;0.60;;;8.20;99.90;;;;;;5015600;28;20185;-67
2021/10/26 04:48:22;;;;;;;2.75;1.83;;;8.30;99.90;;;;;;5033655;28;20548;-68
2021/10/26 04:50:52;;;;;;;0.90;0.60;;;8.40;99.90;;;;;;5015543;28;20620;-68
2021/10/26 04:53:22;;;;;;;1.13;1.02;;;8.30;99.90;;;;;;5015739;28;20313;-66
2021/10/26 04:56:00;;;;;;;0.90;0.70;;;8.30;99.90;;;;;;5015130;28;20204;-67
2021/10/26 04:58:32;;;;;;;1.20;0.98;;;8.40;99.90;;;;;;5015741;28;20213;-68
2021/10/26 05:01:01;;;;;;;1.23;0.98;;;8.30;99.90;;;;;;5015751;28;20248;-68
2021/10/26 05:03:31;;;;;;;1.30;0.90;;;8.30;99.90;;;;;;5015575;28;20213;-66
2021/10/26 05:06:02;;;;;;;1.00;0.70;;;8.30;99.90;;;;;;5033256;28;20200;-67
2021/10/26 05:08:31;;;;;;;1.10;0.85;;;8.30;99.90;;;;;;5033276;28;20190;-67
2021/10/26 05:11:01;;;;;;;1.30;1.02;;;8.20;99.90;;;;;;5015203;28;20272;-67
2021/10/26 05:13:32;;;;;;;3.05;1.92;;;8.20;99.90;;;;;;5015446;28;20213;-67
2021/10/26 05:16:35;;;;;;;6.05;1.20;;;8.40;99.90;;;;;;5031500;28;20692;-67
2021/10/26 05:19:05;;;;;;;1.92;1.20;;;8.30;99.90;;;;;;5033954;28;20278;-66
2021/10/26 05:21:55;;;;;;;0.90;0.70;;;8.40;99.90;;;;;;5033232;28;20211;-68
2021/10/26 05:24:32;;;;;;;0.80;0.60;;;8.50;99.90;;;;;;5033776;28;20205;-66
2021/10/26 05:27:10;;;;;;;1.25;0.98;;;8.50;99.90;;;;;;5031500;28;20280;-67
2021/10/26 05:29:39;;;;;;;1.25;0.93;;;8.40;99.90;;;;;;5031975;28;20198;-68
2021/10/26 05:32:09;;;;;;;0.90;0.75;;;8.30;99.90;;;;;;5031621;28;20474;-68
2021/10/26 05:34:38;;;;;;;5.13;1.35;;;8.50;99.90;;;;;;5033577;28;20255;-66
2021/10/26 05:37:11;;;;;;;1.20;0.98;;;8.60;99.90;;;;;;5033362;28;20227;-66
2021/10/26 05:39:40;;;;;;;1.25;1.10;;;8.60;99.90;;;;;;5032900;28;20247;-67
2021/10/26 05:42:08;;;;;;;2.35;0.82;;;8.70;99.90;;;;;;5032174;28;20249;-66
2021/10/26 05:44:37;;;;;;;1.80;1.50;;;8.80;99.90;;;;;;5032024;28;20228;-66
2021/10/26 05:47:05;;;;;;;1.05;0.95;;;8.80;99.90;;;;;;5031476;28;20181;-67
2021/10/26 05:49:33;;;;;;;1.23;0.80;;;8.80;99.90;;;;;;5032503;28;20181;-67
2021/10/26 05:52:01;;;;;;;1.27;1.08;;;8.90;99.90;;;;;;5031071;28;20225;-67
2021/10/26 05:54:32;;;;;;;2.67;0.90;;;8.90;99.90;;;;;;5031210;28;20815;-68
2021/10/26 05:57:00;;;;;;;1.10;0.90;;;8.80;99.90;;;;;;5031278;28;20221;-68
2021/10/26 05:59:29;;;;;;;1.00;0.70;;;8.90;99.90;;;;;;5032214;28;20200;-67
2021/10/26 06:01:57;;;;;;;1.30;1.20;;;8.90;99.90;;;;;;5029393;28;20236;-65
2021/10/26 06:04:25;;;;;;;3.40;1.00;;;8.70;99.90;;;;;;5027447;28;20221;-67
2021/10/26 06:06:57;;;;;;;1.73;1.63;;;8.70;99.90;;;;;;5013125;28;20251;-66
2021/10/26 06:09:28;;;;;;;0.98;0.82;;;8.80;99.90;;;;;;5031995;28;20174;-67
2021/10/26 06:11:59;;;;;;;1.00;0.77;;;8.80;99.90;;;;;;5014321;28;20216;-69
2021/10/26 06:14:28;;;;;;;1.00;0.60;;;8.90;99.90;;;;;;5014281;28;20204;-68
2021/10/26 06:17:00;;;;;;;1.75;0.80;;;8.90;99.90;;;;;;5014358;28;20692;-68
2021/10/26 06:19:30;;;;;;;2.17;2.00;;;8.80;99.90;;;;;;5014176;28;20570;-68
2021/10/26 06:21:59;;;;;;;2.20;0.80;;;8.90;99.90;;;;;;5013794;28;20233;-67
2021/10/26 06:24:27;;;;;;;0.93;0.67;;;8.90;99.90;;;;;;5014620;28;20239;-66
2021/10/26 06:26:56;;;;;;;3.92;2.67;;;9.00;99.90;;;;;;5013844;28;20444;-68
2021/10/26 06:29:25;;;;;;;2.55;2.35;;;9.10;99.90;;;;;;5014329;28;20570;-68
2021/10/26 06:32:12;;;;;;;1.15;0.88;;;9.10;99.90;;;;;;5031494;28;20211;-67
2021/10/26 06:35:01;;;;;;;1.10;0.85;;;9.10;99.90;;;;;;5013441;28;20197;-66
2021/10/26 06:37:31;;;;;;;2.17;1.35;;;9.20;99.90;;;;;;5010177;28;20667;-67
2021/10/26 06:39:59;;;;;;;2.03;0.93;;;9.30;99.90;;;;;;5011739;28;20190;-68
2021/10/26 06:42:28;;;;;;;3.72;0.98;;;9.40;99.90;;;;;;5009500;28;20863;-67
2021/10/26 06:45:16;;;;;;;3.73;0.90;;;9.30;99.90;;;;;;5011201;28;20197;-67
2021/10/26 06:48:19;;;;;;;1.30;1.10;;;9.40;99.90;;;;;;4989325;28;20444;-66
2021/10/26 06:51:06;;;;;;;4.07;0.80;;;9.40;99.90;;;;;;5011898;28;20197;-66
2021/10/26 06:53:54;;;;;;;1.85;1.05;;;9.50;99.90;;;;;;5017289;28;20189;-67
2021/10/26 06:56:43;;;;;;;0.90;0.60;;;9.60;99.90;;;;;;4999993;28;20216;-67
2021/10/26 06:59:30;;;;;;;2.03;1.70;;;9.70;99.90;;;;;;5028019;28;20201;-67
2021/10/26 07:02:20;;;;;;;0.87;0.60;;;9.70;99.90;;;;;;4966052;28;20460;-68
2021/10/26 07:05:26;;;;;;;1.80;1.20;;;9.80;99.90;;;;;;4978072;28;20661;-67
2021/10/26 07:08:17;;;;;;;1.73;1.40;;;9.80;99.90;;;;;;5029565;28;20971;-67
2021/10/26 07:10:51;;;;;;;1.38;1.17;;;9.90;99.90;;;;;;5009666;28;20435;-67
2021/10/26 07:13:24;;;;;;;1.10;0.90;;;10.00;99.90;;;;;;5012524;28;20761;-68
2021/10/26 07:15:53;;;;;;;2.40;2.20;;;10.10;99.90;;;;;;5030287;28;20492;-66
2021/10/26 07:18:22;;;;;;;0.90;0.60;;;10.30;99.90;;;;;;5013724;28;20439;-67
2021/10/26 07:20:52;;;;;;;1.60;0.87;;;10.40;99.90;;;;;;5009235;28;20553;-68
2021/10/26 07:23:41;;;;;;;1.00;0.70;;;10.40;99.90;;;;;;5028425;28;20460;-68
2021/10/26 07:26:34;;;;;;;1.00;0.80;;;10.50;99.90;;;;;;5008751;28;20936;-67
2021/10/26 07:29:05;;;;;;;1.03;0.93;;;10.50;99.90;;;;;;5020790;28;20432;-67
2021/10/26 07:31:35;;;;;;;1.40;1.20;;;10.50;99.90;;;;;;5010405;28;20480;-66
2021/10/26 07:34:05;;;;;;;2.07;1.03;;;10.60;99.90;;;;;;5012133;28;20803;-66
2021/10/26 07:36:41;;;;;;;1.00;0.80;;;10.70;99.90;;;;;;5030061;28;20475;-67
2021/10/26 07:39:21;;;;;;;1.00;0.70;;;10.80;99.90;;;;;;5019791;28;20526;-67
2021/10/26 07:41:50;;;;;;;1.43;1.07;;;10.90;99.90;;;;;;5016154;28;20484;-67
2021/10/26 07:44:37;;;;;;;1.00;0.90;;;11.00;99.90;;;;;;5031832;28;20423;-66
2021/10/26 07:47:26;;;;;;;1.60;1.50;;;11.10;99.90;;;;;;5013817;28;20424;-68
2021/10/26 07:49:58;;;;;;;1.30;1.00;;;11.20;99.90;;;;;;5017287;28;20436;-66
2021/10/26 07:52:30;;;;;;;1.70;0.80;;;11.40;99.90;;;;;;5018295;28;20459;-69
2021/10/26 07:55:25;;;;;;;2.33;1.80;;;11.50;99.90;;;;;;5031288;28;20490;-68
2021/10/26 07:58:05;;;;;;;2.60;0.90;;;11.60;99.90;;;;;;5015612;28;20417;-68
2021/10/26 08:00:34;;;;;;;1.23;1.10;;;11.50;99.90;;;;;;5032879;28;20440;-66
2021/10/26 08:03:22;;;;;;;1.50;1.17;;;11.50;99.90;;;;;;5034296;28;21035;-66
2021/10/26 08:05:59;;;;;;;0.80;0.53;;;11.60;99.90;;;;;;5032832;28;20439;-67
2021/10/26 08:08:29;;;;;;;1.80;1.53;;;11.50;99.90;;;;;;5029426;28;20539;-67
2021/10/26 08:10:59;;;;;;;1.33;1.23;;;11.70;99.90;;;;;;5024815;28;20907;-66
2021/10/26 08:13:27;;;;;;;9.33;1.97;;;11.80;99.90;;;;;;5035621;28;20948;-66
2021/10/26 08:15:55;;;;;;;1.30;1.07;;;11.70;99.90;;;;;;5017260;28;20436;-68
2021/10/26 08:18:24;;;;;;;1.80;1.30;;;11.80;99.90;;;;;;5017275;28;20436;-67
2021/10/26 08:20:52;;;;;;;1.73;1.53;;;12.00;99.90;;;;;;5034659;28;20432;-67
2021/10/26 08:23:23;;;;;;;1.10;0.80;;;12.10;99.90;;;;;;5016085;28;20451;-66
2021/10/26 08:25:58;;;;;;;1.07;0.90;;;12.30;99.90;;;;;;5016992;28;20481;-66
2021/10/26 08:28:26;;;;;;;1.60;1.47;;;12.40;99.90;;;;;;5019298;28;20433;-67
2021/10/26 08:31:01;;;;;;;1.27;0.83;;;12.60;99.90;;;;;;5033537;28;20534;-68
2021/10/26 08:33:52;;;;;;;4.40;2.50;;;12.80;99.90;;;;;;5032333;28;20483;-68
2021/10/26 08:36:20;;;;;;;1.20;0.80;;;12.90;99.90;;;;;;5033626;28;20466;-67
2021/10/26 08:38:50;;;;;;;2.37;1.47;;;12.70;99.90;;;;;;5024225;28;20482;-68
2021/10/26 08:41:19;;;;;;;1.57;1.13;;;12.50;99.90;;;;;;5033705;28;20787;-67
2021/10/26 08:43:48;;;;;;;3.03;1.50;;;12.40;99.90;;;;;;5015938;28;20459;-66
2021/10/26 08:46:17;;;;;;;2.83;2.30;;;12.40;99.90;;;;;;5015350;28;20448;-67
2021/10/26 08:48:50;;;;;;;2.00;1.10;;;12.40;99.90;;;;;;5018632;28;20535;-67
2021/10/26 08:51:38;;;;;;;7.20;1.93;;;12.30;99.90;;;;;;5033432;28;20393;-67
2021/10/26 08:54:12;;;;;;;1.40;0.87;;;12.30;99.90;;;;;;5019673;28;20456;-67
2021/10/26 08:57:02;;;;;;;1.60;1.00;;;12.30;99.90;;;;;;5031419;28;20941;-68
2021/10/26 08:59:40;;;;;;;1.23;0.80;;;12.20;99.90;;;;;;5033561;28;20435;-67
2021/10/26 09:02:08;;;;;;;1.83;1.23;;;12.10;99.90;;;;;;5034368;28;20564;-68
2021/10/26 09:04:38;;;;;;;2.47;1.50;;;12.10;99.90;;;;;;5015854;28;20440;-66
2021/10/26 09:07:17;;;;;;;3.23;1.50;;;12.00;99.90;;;;;;5016378;28;20436;-66
2021/10/26 09:09:49;;;;;;;2.57;2.20;;;12.00;99.90;;;;;;5016430;28;20841;-67
2021/10/26 09:18:11;;;;;;;2.73;2.33;;;12.50;99.90;;;;;;5031719;28;20448;-66
2021/10/26 09:20:58;;;;;;;1.60;1.50;;;12.60;99.90;;;;;;5032407;28;20443;-67
2021/10/26 09:23:48;;;;;;;1.77;1.43;;;12.60;99.90;;;;;;5014810;28;20451;-65
2021/10/26 09:26:26;;;;;;;2.03;1.30;;;12.80;99.90;;;;;;5015400;28;20432;-67
2021/10/26 09:28:56;;;;;;;2.10;1.83;;;12.80;99.90;;;;;;5032531;28;20621;-68
2021/10/26 09:31:26;;;;;;;1.10;0.90;;;12.90;99.90;;;;;;5031153;28;20432;-66
2021/10/26 09:34:01;;;;;;;1.57;1.43;;;13.00;99.90;;;;;;5045034;22;20571;-66
2021/10/26 09:36:32;;;;;;;3.70;3.30;;;12.90;99.90;;;;;;5052781;28;20522;-65
2021/10/26 09:39:20;;;;;;;1.33;1.20;;;12.90;99.90;;;;;;5037638;28;20446;-64
2021/10/26 09:42:09;;;;;;;2.20;1.80;;;13.00;99.90;;;;;;5040692;28;20482;-64
2021/10/26 09:44:48;;;;;;;2.30;1.37;;;13.20;99.90;;;;;;5048514;28;20428;-65
2021/10/26 09:47:23;;;;;;;1.17;0.90;;;13.40;99.90;;;;;;5051594;28;20407;-64
2021/10/26 09:49:55;;;;;;;2.70;1.80;;;13.50;99.90;;;;;;5037380;28;20467;-65
2021/10/26 09:52:27;;;;;;;3.23;1.40;;;13.30;99.90;;;;;;5051862;28;20439;-65
2021/10/26 09:55:13;;;;;;;2.80;2.60;;;13.20;99.90;;;;;;5037886;28;20456;-66
2021/10/26 09:57:45;;;;;;;2.70;2.10;;;13.40;99.90;;;;;;5030944;28;20399;-66
2021/10/26 10:00:18;;;;;;;0.90;0.70;;;13.40;99.90;;;;;;5031401;28;20928;-65
2021/10/26 10:02:57;;;;;;;1.77;1.23;;;13.70;99.90;;;;;;5031207;28;20438;-66
2021/10/26 10:05:27;;;;;;;3.60;1.23;;;13.90;99.90;;;;;;5051558;28;21028;-66
2021/10/26 10:07:56;;;;;;;1.47;1.13;;;14.00;99.90;;;;;;5046578;28;20533;-66
2021/10/26 10:10:36;;;;;;;2.33;1.50;;;14.20;99.90;;;;;;5011845;28;20436;-65
2021/10/26 10:13:06;;;;;;;1.10;0.90;;;14.40;99.90;;;;;;5031215;28;20523;-64
2021/10/26 10:15:35;;;;;;;1.60;1.50;;;14.50;99.80;;;;;;5031159;28;20478;-64
2021/10/26 10:18:04;;;;;;;0.93;0.57;;;14.60;99.90;;;;;;5028728;28;20440;-65
2021/10/26 10:20:33;;;;;;;1.20;1.00;;;14.70;99.00;;;;;;5042887;28;20430;-65
2021/10/26 10:23:02;;;;;;;1.23;1.13;;;14.80;96.80;;;;;;5051370;28;20545;-67
2021/10/26 10:25:31;;;;;;;3.37;2.00;;;14.90;96.70;;;;;;5051514;28;20398;-67
2021/10/26 10:28:03;;;;;;;1.20;0.70;;;15.00;95.10;;;;;;5045817;28;20767;-65
2021/10/26 10:30:34;;;;;;;2.60;2.40;;;15.00;95.40;;;;;;5031684;28;20430;-65
2021/10/26 10:33:02;;;;;;;1.70;1.40;;;15.10;93.70;;;;;;5031624;28;20444;-66
2021/10/26 10:35:32;;;;;;;1.77;1.27;;;15.00;95.40;;;;;;5042195;28;20922;-65
2021/10/26 10:38:01;;;;;;;1.67;1.57;;;14.90;94.50;;;;;;5045944;28;20936;-67
2021/10/26 10:40:32;;;;;;;2.30;1.90;;;14.90;94.90;;;;;;5031605;28;20397;-67
2021/10/26 10:43:01;;;;;;;0.90;0.67;;;14.70;95.80;;;;;;5031340;28;21036;-66
2021/10/26 10:45:34;;;;;;;1.63;1.10;;;14.40;98.30;;;;;;5031567;28;20443;-64
2021/10/26 10:48:03;;;;;;;2.03;1.87;;;14.60;98.90;;;;;;5028919;28;20428;-65
2021/10/26 10:50:37;;;;;;;1.80;1.70;;;14.70;98.60;;;;;;5041680;28;20406;-65
2021/10/26 10:53:16;;;;;;;2.30;1.60;;;14.60;99.00;;;;;;5051110;28;20429;-68
2021/10/26 10:55:47;;;;;;;2.50;2.27;;;14.60;98.40;;;;;;5051169;28;20492;-65
2021/10/26 10:58:30;;;;;;;1.10;0.90;;;14.60;99.50;;;;;;5051324;28;20434;-67
2021/10/26 11:01:23;;;;;;;1.40;1.10;;;14.50;99.60;;;;;;5050984;28;20493;-66
2021/10/26 11:03:53;;;;;;;4.10;1.27;;;14.50;99.20;;;;;;5050711;28;20893;-64
2021/10/26 11:06:53;;;;;;;0.90;0.60;;;14.40;99.90;;;;;;5042056;28;21096;-65
2021/10/26 11:09:41;;;;;;;4.20;2.63;;;14.20;99.90;;;;;;5046426;28;20466;-66
2021/10/26 11:12:15;;;;;;;2.10;1.83;;;14.20;99.90;;;;;;5022588;28;20455;-66
2021/10/26 11:14:46;;;;;;;2.47;1.50;;;14.40;99.90;;;;;;5020447;28;20408;-66
2021/10/26 11:18:00;;;;;;;2.00;1.90;;;14.50;99.90;;;;;;5013203;28;20447;-66
2021/10/26 11:20:52;;;;;;;1.40;1.17;;;14.60;99.90;;;;;;5038559;28;20402;-64
2021/10/26 11:23:45;;;;;;;1.43;1.17;;;14.50;99.90;;;;;;5053590;28;20831;-65
2021/10/26 11:26:19;;;;;;;1.93;1.63;;;14.60;99.90;;;;;;5035096;28;20524;-67
2021/10/26 11:28:54;;;;;;;2.70;1.20;;;14.40;99.90;;;;;;5041382;28;20410;-66
2021/10/26 11:31:25;;;;;;;1.67;1.57;;;14.40;99.90;;;;;;5034189;28;20484;-65
2021/10/26 11:34:07;;;;;;;2.27;1.83;;;14.60;99.90;;;;;;5016214;28;20429;-66
2021/10/26 11:36:38;;;;;;;2.27;2.07;;;14.60;99.90;;;;;;5031556;28;20413;-67
2021/10/26 11:39:10;;;;;;;1.30;1.20;;;14.80;99.90;;;;;;5054420;28;21001;-67
2021/10/26 11:41:40;;;;;;;2.63;2.40;;;15.00;98.70;;;;;;5054231;28;20401;-65
2021/10/26 11:44:10;;;;;;;2.80;2.00;;;15.00;97.60;;;;;;5054025;28;20434;-67
2021/10/26 11:46:41;;;;;;;2.73;2.53;;;15.20;96.90;;;;;;5015472;28;20920;-67
2021/10/26 11:49:17;;;;;;;5.57;2.33;;;15.10;96.70;;;;;;5014502;28;20409;-65
2021/10/26 11:51:50;;;;;;;1.57;1.07;;;15.00;96.60;;;;;;5014299;28;20444;-67
2021/10/26 11:54:21;;;;;;;2.37;1.80;;;14.90;97.50;;;;;;5014593;28;20739;-67
2021/10/26 11:56:51;;;;;;;1.77;1.67;;;14.70;98.40;;;;;;5013668;28;20756;-65
2021/10/26 11:59:36;;;;;;;1.63;1.53;;;14.70;99.20;;;;;;4996279;28;20440;-67
2021/10/26 12:02:24;;;;;;;3.03;1.53;;;14.60;99.90;;;;;;5023208;28;20554;-69
2021/10/26 12:05:19;;;;;;;4.40;3.77;;;14.70;99.90;;;;;;5053200;28;20430;-67
2021/10/26 12:07:51;;;;;;;1.40;0.83;;;14.90;98.30;;;;;;5053361;28;20409;-66
2021/10/26 12:10:23;;;;;;;2.13;1.57;;;14.70;99.90;;;;;;5053627;28;20431;-65
2021/10/26 12:12:51;;;;;;;2.23;1.60;;;14.70;99.90;;;;;;5053312;28;20424;-65
2021/10/26 12:15:20;;;;;;;1.63;1.53;;;14.50;99.90;;;;;;5053328;28;20434;-67
2021/10/26 12:17:48;;;;;;;2.00;1.80;;;14.30;99.90;;;;;;5053264;28;20414;-66
2021/10/26 12:20:18;;;;;;;1.77;1.20;;;14.20;99.90;;;;;;5053137;28;20438;-66
2021/10/26 12:22:58;;;;;;;2.03;1.23;;;14.20;99.90;;;;;;5035401;28;20485;-66
2021/10/26 12:25:30;;;;;;;1.13;0.90;;;14.10;99.90;;;;;;5034976;28;20439;-66
2021/10/26 12:28:00;;;;;;;2.13;1.87;;;14.10;99.90;;;;;;5035040;28;20442;-66
2021/10/26 12:30:31;;;;;;;1.60;1.30;;;14.10;99.90;;;;;;5053312;28;20453;-66
2021/10/26 12:33:01;;;;;;;2.73;2.00;;;14.30;99.90;;;;;;5034932;28;21061;-67
2021/10/26 12:35:32;;;;;;;1.50;1.33;;;14.50;99.90;;;;;;5052995;28;21008;-68
2021/10/26 12:38:23;;;;;;;3.93;2.40;;;14.60;99.90;;;;;;5052836;28;20459;-67
2021/10/26 12:40:51;;;;;;;4.10;1.83;;;14.40;99.90;;;;;;5053242;28;20419;-68
2021/10/26 12:43:23;;;;;;;1.93;1.63;;;14.50;99.90;;;;;;5052406;28;20439;-66
2021/10/26 12:45:53;;;;;;;1.80;1.70;;;14.50;99.90;;;;;;5052818;28;20514;-66
2021/10/26 12:48:22;;;;;;;1.93;0.80;;;14.40;99.80;;;;;;5034771;28;20472;-67
2021/10/26 12:50:59;;;;;;;2.53;2.33;;;14.60;99.90;;;;;;5052783;28;20415;-68
2021/10/26 12:53:34;;;;;;;2.10;1.33;;;14.50;99.80;;;;;;5019561;28;20462;-67
2021/10/26 12:56:15;;;;;;;2.17;1.90;;;14.40;99.90;;;;;;5014827;28;20476;-65
2021/10/26 12:58:46;;;;;;;2.87;2.67;;;14.60;99.90;;;;;;5032955;28;20403;-67
2021/10/26 13:01:24;;;;;;;4.20;1.40;;;14.70;99.50;;;;;;5031987;28;20864;-65
2021/10/26 13:03:57;;;;;;;2.63;2.27;;;14.70;99.90;;;;;;5032915;28;20469;-64
2021/10/26 13:06:31;;;;;;;8.10;2.90;;;14.80;99.80;;;;;;5032981;28;20531;-69
2021/10/26 13:09:01;;;;;;;3.13;2.83;;;14.90;98.80;;;;;;5032327;28;20432;-66
2021/10/26 13:11:31;;;;;;;1.23;1.13;;;14.80;99.80;;;;;;5041615;28;20840;-65
2021/10/26 13:14:01;;;;;;;2.63;2.23;;;14.80;99.90;;;;;;5051902;28;20494;-65
2021/10/26 13:16:35;;;;;;;10.50;3.30;;;14.80;99.90;;;;;;5031352;28;20431;-66
2021/10/26 13:19:20;;;;;;;2.17;1.23;;;14.60;99.90;;;;;;5027467;28;20504;-65
2021/10/26 13:21:50;;;;;;;2.10;1.47;;;14.40;99.90;;;;;;5012908;28;20426;-66
2021/10/26 13:24:20;;;;;;;1.43;1.33;;;14.40;99.90;;;;;;4998887;28;20482;-65
2021/10/26 13:26:49;;;;;;;2.43;2.23;;;14.20;99.90;;;;;;5051521;28;20525;-66
2021/10/26 13:29:18;;;;;;;2.33;1.73;;;14.10;99.90;;;;;;5052926;28;20444;-66
2021/10/26 13:31:47;;;;;;;2.23;1.30;;;14.10;99.90;;;;;;5051996;28;21130;-67